sensor_id;sensor_type;location;lat;lon;timestamp;P1;durP1;ratioP1;P2;durP2;ratioP2
34805;SDS011;65084;42.196;25.326;2024-03-02T00:01:37;31.98;;;18.30;;
34805;SDS011;65084;42.196;25.326;2024-03-02T00:04:04;32.58;;;18.17;;
34805;SDS011;65084;42.196;25.326;2024-03-02T00:06:32;34.65;;;18.70;;
34805;SDS011;65084;42.196;25.326;2024-03-02T00:08:59;35.25;;;18.45;;
34805;SDS011;65084;42.196;25.326;2024-03-02T00:11:27;34.55;;;16.88;;
34805;SDS011;65084;42.196;25.326;2024-03-02T00:13:54;33.20;;;16.58;;
34805;SDS011;65084;42.196;25.326;2024-03-02T00:16:23;43.40;;;17.42;;
34805;SDS011;65084;42.196;25.326;2024-03-02T00:18:51;30.80;;;17.05;;
34805;SDS011;65084;42.196;25.326;2024-03-02T00:21:19;29.27;;;17.17;;
34805;SDS011;65084;42.196;25.326;2024-03-02T00:23:47;29.65;;;16.05;;
34805;SDS011;65084;42.196;25.326;2024-03-02T00:26:17;35.80;;;17.13;;
34805;SDS011;65084;42.196;25.326;2024-03-02T00:28:44;40.10;;;17.77;;
34805;SDS011;65084;42.196;25.326;2024-03-02T00:31:11;33.90;;;17.15;;
34805;SDS011;65084;42.196;25.326;2024-03-02T00:33:42;32.83;;;17.02;;
34805;SDS011;65084;42.196;25.326;2024-03-02T00:36:09;34.83;;;17.75;;
34805;SDS011;65084;42.196;25.326;2024-03-02T00:38:42;30.30;;;16.60;;
34805;SDS011;65084;42.196;25.326;2024-03-02T00:41:14;36.55;;;16.77;;
34805;SDS011;65084;42.196;25.326;2024-03-02T00:43:42;36.28;;;18.23;;
34805;SDS011;65084;42.196;25.326;2024-03-02T00:46:15;30.48;;;15.82;;
34805;SDS011;65084;42.196;25.326;2024-03-02T00:48:48;30.35;;;16.70;;
34805;SDS011;65084;42.196;25.326;2024-03-02T00:51:19;30.25;;;16.15;;
34805;SDS011;65084;42.196;25.326;2024-03-02T00:53:47;34.53;;;17.30;;
34805;SDS011;65084;42.196;25.326;2024-03-02T00:56:15;34.53;;;16.42;;
34805;SDS011;65084;42.196;25.326;2024-03-02T00:58:43;32.47;;;16.40;;
34805;SDS011;65084;42.196;25.326;2024-03-02T01:01:10;37.60;;;17.20;;
34805;SDS011;65084;42.196;25.326;2024-03-02T01:03:37;34.65;;;17.73;;
34805;SDS011;65084;42.196;25.326;2024-03-02T01:06:08;39.15;;;17.88;;
34805;SDS011;65084;42.196;25.326;2024-03-02T01:08:35;36.30;;;17.58;;
34805;SDS011;65084;42.196;25.326;2024-03-02T01:11:03;41.25;;;19.23;;
34805;SDS011;65084;42.196;25.326;2024-03-02T01:13:30;37.80;;;17.85;;
34805;SDS011;65084;42.196;25.326;2024-03-02T01:15:57;38.22;;;18.65;;
34805;SDS011;65084;42.196;25.326;2024-03-02T01:18:25;38.60;;;18.17;;
34805;SDS011;65084;42.196;25.326;2024-03-02T01:20:52;41.97;;;17.85;;
34805;SDS011;65084;42.196;25.326;2024-03-02T01:23:22;34.95;;;17.15;;
34805;SDS011;65084;42.196;25.326;2024-03-02T01:25:49;30.42;;;15.50;;
34805;SDS011;65084;42.196;25.326;2024-03-02T01:28:17;32.22;;;15.88;;
34805;SDS011;65084;42.196;25.326;2024-03-02T01:30:45;39.08;;;16.85;;
34805;SDS011;65084;42.196;25.326;2024-03-02T01:33:13;30.67;;;15.80;;
34805;SDS011;65084;42.196;25.326;2024-03-02T01:35:40;28.35;;;15.93;;
34805;SDS011;65084;42.196;25.326;2024-03-02T01:38:07;36.20;;;16.10;;
34805;SDS011;65084;42.196;25.326;2024-03-02T01:40:36;34.85;;;15.52;;
34805;SDS011;65084;42.196;25.326;2024-03-02T01:43:04;32.65;;;16.15;;
34805;SDS011;65084;42.196;25.326;2024-03-02T01:45:31;29.20;;;15.20;;
34805;SDS011;65084;42.196;25.326;2024-03-02T01:47:58;29.67;;;15.70;;
34805;SDS011;65084;42.196;25.326;2024-03-02T01:50:26;32.80;;;15.98;;
34805;SDS011;65084;42.196;25.326;2024-03-02T01:52:55;31.48;;;14.85;;
34805;SDS011;65084;42.196;25.326;2024-03-02T01:55:22;35.53;;;14.95;;
34805;SDS011;65084;42.196;25.326;2024-03-02T01:57:52;34.85;;;16.52;;
34805;SDS011;65084;42.196;25.326;2024-03-02T02:00:19;29.23;;;15.80;;
34805;SDS011;65084;42.196;25.326;2024-03-02T02:02:47;26.92;;;14.65;;
34805;SDS011;65084;42.196;25.326;2024-03-02T02:05:14;30.48;;;14.18;;
34805;SDS011;65084;42.196;25.326;2024-03-02T02:07:42;28.33;;;14.95;;
34805;SDS011;65084;42.196;25.326;2024-03-02T02:10:09;25.75;;;15.35;;
34805;SDS011;65084;42.196;25.326;2024-03-02T02:12:37;28.90;;;13.73;;
34805;SDS011;65084;42.196;25.326;2024-03-02T02:15:07;33.15;;;15.65;;
34805;SDS011;65084;42.196;25.326;2024-03-02T02:17:48;37.70;;;15.75;;
34805;SDS011;65084;42.196;25.326;2024-03-02T02:20:15;39.63;;;16.17;;
34805;SDS011;65084;42.196;25.326;2024-03-02T02:22:54;32.58;;;16.10;;
34805;SDS011;65084;42.196;25.326;2024-03-02T02:25:22;31.13;;;16.05;;
34805;SDS011;65084;42.196;25.326;2024-03-02T02:27:49;33.67;;;15.95;;
34805;SDS011;65084;42.196;25.326;2024-03-02T02:30:18;34.60;;;16.98;;
34805;SDS011;65084;42.196;25.326;2024-03-02T02:32:45;32.88;;;17.60;;
34805;SDS011;65084;42.196;25.326;2024-03-02T02:35:13;32.25;;;16.27;;
34805;SDS011;65084;42.196;25.326;2024-03-02T02:37:40;31.85;;;16.55;;
34805;SDS011;65084;42.196;25.326;2024-03-02T02:40:10;34.30;;;17.27;;
34805;SDS011;65084;42.196;25.326;2024-03-02T02:42:37;29.45;;;16.52;;
34805;SDS011;65084;42.196;25.326;2024-03-02T02:45:05;36.97;;;16.90;;
34805;SDS011;65084;42.196;25.326;2024-03-02T02:47:32;32.08;;;15.90;;
34805;SDS011;65084;42.196;25.326;2024-03-02T02:50:00;34.20;;;16.48;;
34805;SDS011;65084;42.196;25.326;2024-03-02T02:52:30;37.10;;;16.23;;
34805;SDS011;65084;42.196;25.326;2024-03-02T02:55:00;39.33;;;16.80;;
34805;SDS011;65084;42.196;25.326;2024-03-02T02:57:29;29.55;;;15.75;;
34805;SDS011;65084;42.196;25.326;2024-03-02T03:00:00;37.92;;;17.60;;
34805;SDS011;65084;42.196;25.326;2024-03-02T03:02:30;31.45;;;16.27;;
34805;SDS011;65084;42.196;25.326;2024-03-02T03:04:57;36.42;;;16.70;;
34805;SDS011;65084;42.196;25.326;2024-03-02T03:07:25;34.33;;;16.80;;
34805;SDS011;65084;42.196;25.326;2024-03-02T03:09:52;40.40;;;17.40;;
34805;SDS011;65084;42.196;25.326;2024-03-02T03:12:20;35.33;;;16.58;;
34805;SDS011;65084;42.196;25.326;2024-03-02T03:14:48;29.77;;;15.75;;
34805;SDS011;65084;42.196;25.326;2024-03-02T03:17:16;34.28;;;16.15;;
34805;SDS011;65084;42.196;25.326;2024-03-02T03:19:44;38.40;;;16.20;;
34805;SDS011;65084;42.196;25.326;2024-03-02T03:22:11;37.85;;;17.55;;
34805;SDS011;65084;42.196;25.326;2024-03-02T03:24:39;33.17;;;16.30;;
34805;SDS011;65084;42.196;25.326;2024-03-02T03:27:06;34.72;;;16.02;;
34805;SDS011;65084;42.196;25.326;2024-03-02T03:29:33;32.50;;;16.45;;
34805;SDS011;65084;42.196;25.326;2024-03-02T03:32:02;33.83;;;15.82;;
34805;SDS011;65084;42.196;25.326;2024-03-02T03:34:32;29.80;;;15.35;;
34805;SDS011;65084;42.196;25.326;2024-03-02T03:36:59;30.40;;;15.68;;
34805;SDS011;65084;42.196;25.326;2024-03-02T03:39:26;29.17;;;13.93;;
34805;SDS011;65084;42.196;25.326;2024-03-02T03:41:54;29.75;;;16.65;;
34805;SDS011;65084;42.196;25.326;2024-03-02T03:44:21;29.50;;;14.43;;
34805;SDS011;65084;42.196;25.326;2024-03-02T03:46:48;33.78;;;15.63;;
34805;SDS011;65084;42.196;25.326;2024-03-02T03:49:17;30.08;;;15.18;;
34805;SDS011;65084;42.196;25.326;2024-03-02T03:51:44;30.27;;;14.77;;
34805;SDS011;65084;42.196;25.326;2024-03-02T03:54:12;32.83;;;15.88;;
34805;SDS011;65084;42.196;25.326;2024-03-02T03:56:39;36.30;;;16.50;;
34805;SDS011;65084;42.196;25.326;2024-03-02T03:59:06;36.47;;;16.50;;
34805;SDS011;65084;42.196;25.326;2024-03-02T04:01:33;39.38;;;16.67;;
34805;SDS011;65084;42.196;25.326;2024-03-02T04:04:01;33.97;;;15.75;;
34805;SDS011;65084;42.196;25.326;2024-03-02T04:06:30;35.45;;;15.20;;
34805;SDS011;65084;42.196;25.326;2024-03-02T04:08:57;35.72;;;15.82;;
34805;SDS011;65084;42.196;25.326;2024-03-02T04:11:24;36.63;;;15.75;;
34805;SDS011;65084;42.196;25.326;2024-03-02T04:13:52;35.83;;;16.65;;
34805;SDS011;65084;42.196;25.326;2024-03-02T04:16:19;40.67;;;17.50;;
34805;SDS011;65084;42.196;25.326;2024-03-02T04:18:46;29.55;;;15.63;;
34805;SDS011;65084;42.196;25.326;2024-03-02T04:21:14;35.00;;;15.80;;
34805;SDS011;65084;42.196;25.326;2024-03-02T04:23:42;32.92;;;16.17;;
34805;SDS011;65084;42.196;25.326;2024-03-02T04:26:10;38.08;;;16.67;;
34805;SDS011;65084;42.196;25.326;2024-03-02T04:28:37;43.35;;;17.13;;
34805;SDS011;65084;42.196;25.326;2024-03-02T04:31:04;43.85;;;17.63;;
34805;SDS011;65084;42.196;25.326;2024-03-02T04:33:31;34.90;;;16.55;;
34805;SDS011;65084;42.196;25.326;2024-03-02T04:35:59;30.92;;;16.40;;
34805;SDS011;65084;42.196;25.326;2024-03-02T04:38:26;35.47;;;16.63;;
34805;SDS011;65084;42.196;25.326;2024-03-02T04:40:55;36.17;;;17.30;;
34805;SDS011;65084;42.196;25.326;2024-03-02T04:43:22;40.70;;;17.83;;
34805;SDS011;65084;42.196;25.326;2024-03-02T04:45:49;40.80;;;16.58;;
34805;SDS011;65084;42.196;25.326;2024-03-02T04:48:17;39.92;;;16.90;;
34805;SDS011;65084;42.196;25.326;2024-03-02T04:50:44;40.00;;;16.83;;
34805;SDS011;65084;42.196;25.326;2024-03-02T04:53:11;40.53;;;17.50;;
34805;SDS011;65084;42.196;25.326;2024-03-02T04:55:39;53.53;;;26.48;;
34805;SDS011;65084;42.196;25.326;2024-03-02T04:58:36;53.40;;;24.50;;
34805;SDS011;65084;42.196;25.326;2024-03-02T05:01:03;54.03;;;28.27;;
34805;SDS011;65084;42.196;25.326;2024-03-02T05:03:31;61.08;;;26.80;;
34805;SDS011;65084;42.196;25.326;2024-03-02T05:06:00;49.47;;;22.80;;
34805;SDS011;65084;42.196;25.326;2024-03-02T05:08:27;42.67;;;19.27;;
34805;SDS011;65084;42.196;25.326;2024-03-02T05:10:54;37.97;;;17.15;;
34805;SDS011;65084;42.196;25.326;2024-03-02T05:13:44;39.95;;;16.65;;
34805;SDS011;65084;42.196;25.326;2024-03-02T05:16:10;38.90;;;16.67;;
34805;SDS011;65084;42.196;25.326;2024-03-02T05:18:37;43.38;;;19.88;;
34805;SDS011;65084;42.196;25.326;2024-03-02T05:21:05;40.60;;;20.13;;
34805;SDS011;65084;42.196;25.326;2024-03-02T05:23:32;45.92;;;18.90;;
34805;SDS011;65084;42.196;25.326;2024-03-02T05:25:59;43.45;;;19.95;;
34805;SDS011;65084;42.196;25.326;2024-03-02T05:28:27;35.90;;;16.67;;
34805;SDS011;65084;42.196;25.326;2024-03-02T05:30:55;60.60;;;30.30;;
34805;SDS011;65084;42.196;25.326;2024-03-02T05:33:22;50.60;;;29.20;;
34805;SDS011;65084;42.196;25.326;2024-03-02T05:35:50;59.28;;;28.67;;
34805;SDS011;65084;42.196;25.326;2024-03-02T05:38:17;46.63;;;25.55;;
34805;SDS011;65084;42.196;25.326;2024-03-02T05:40:44;50.28;;;23.20;;
34805;SDS011;65084;42.196;25.326;2024-03-02T05:43:12;50.17;;;24.30;;
34805;SDS011;65084;42.196;25.326;2024-03-02T05:45:39;46.53;;;19.92;;
34805;SDS011;65084;42.196;25.326;2024-03-02T05:48:08;40.05;;;17.52;;
34805;SDS011;65084;42.196;25.326;2024-03-02T05:50:35;45.58;;;18.70;;
34805;SDS011;65084;42.196;25.326;2024-03-02T05:53:03;48.40;;;21.38;;
34805;SDS011;65084;42.196;25.326;2024-03-02T05:55:30;45.47;;;18.00;;
34805;SDS011;65084;42.196;25.326;2024-03-02T05:57:57;61.70;;;27.75;;
34805;SDS011;65084;42.196;25.326;2024-03-02T06:00:40;63.88;;;28.05;;
34805;SDS011;65084;42.196;25.326;2024-03-02T06:03:10;62.83;;;30.15;;
34805;SDS011;65084;42.196;25.326;2024-03-02T06:05:37;78.13;;;41.38;;
34805;SDS011;65084;42.196;25.326;2024-03-02T06:08:06;60.67;;;27.70;;
34805;SDS011;65084;42.196;25.326;2024-03-02T06:10:33;39.05;;;18.50;;
34805;SDS011;65084;42.196;25.326;2024-03-02T06:13:00;41.33;;;17.50;;
34805;SDS011;65084;42.196;25.326;2024-03-02T06:15:28;42.20;;;18.20;;
34805;SDS011;65084;42.196;25.326;2024-03-02T06:17:55;39.47;;;18.25;;
34805;SDS011;65084;42.196;25.326;2024-03-02T06:20:24;44.97;;;19.70;;
34805;SDS011;65084;42.196;25.326;2024-03-02T06:22:51;42.63;;;20.20;;
34805;SDS011;65084;42.196;25.326;2024-03-02T06:25:19;35.50;;;17.30;;
34805;SDS011;65084;42.196;25.326;2024-03-02T06:27:46;39.45;;;15.57;;
34805;SDS011;65084;42.196;25.326;2024-03-02T06:30:14;28.52;;;15.15;;
34805;SDS011;65084;42.196;25.326;2024-03-02T06:32:41;37.30;;;16.75;;
34805;SDS011;65084;42.196;25.326;2024-03-02T06:35:08;31.95;;;13.80;;
34805;SDS011;65084;42.196;25.326;2024-03-02T06:37:39;35.17;;;15.30;;
34805;SDS011;65084;42.196;25.326;2024-03-02T06:40:06;42.00;;;16.20;;
34805;SDS011;65084;42.196;25.326;2024-03-02T06:42:34;39.67;;;17.77;;
34805;SDS011;65084;42.196;25.326;2024-03-02T06:45:01;44.22;;;25.48;;
34805;SDS011;65084;42.196;25.326;2024-03-02T06:47:29;46.13;;;22.35;;
34805;SDS011;65084;42.196;25.326;2024-03-02T06:49:56;48.03;;;26.60;;
34805;SDS011;65084;42.196;25.326;2024-03-02T06:52:24;40.67;;;21.83;;
34805;SDS011;65084;42.196;25.326;2024-03-02T06:54:53;46.30;;;23.20;;
34805;SDS011;65084;42.196;25.326;2024-03-02T06:57:20;39.35;;;19.73;;
34805;SDS011;65084;42.196;25.326;2024-03-02T06:59:49;41.22;;;19.95;;
34805;SDS011;65084;42.196;25.326;2024-03-02T07:02:19;37.88;;;18.30;;
34805;SDS011;65084;42.196;25.326;2024-03-02T07:04:48;46.60;;;19.63;;
34805;SDS011;65084;42.196;25.326;2024-03-02T07:07:16;41.97;;;19.10;;
34805;SDS011;65084;42.196;25.326;2024-03-02T07:09:43;37.40;;;17.38;;
34805;SDS011;65084;42.196;25.326;2024-03-02T07:12:12;40.20;;;17.83;;
34805;SDS011;65084;42.196;25.326;2024-03-02T07:14:38;35.17;;;18.55;;
34805;SDS011;65084;42.196;25.326;2024-03-02T07:17:36;36.20;;;17.65;;
34805;SDS011;65084;42.196;25.326;2024-03-02T07:20:04;42.13;;;17.45;;
34805;SDS011;65084;42.196;25.326;2024-03-02T07:22:31;53.45;;;19.65;;
34805;SDS011;65084;42.196;25.326;2024-03-02T07:24:59;37.88;;;16.92;;
34805;SDS011;65084;42.196;25.326;2024-03-02T07:27:29;37.78;;;16.90;;
34805;SDS011;65084;42.196;25.326;2024-03-02T07:29:58;42.25;;;17.20;;
34805;SDS011;65084;42.196;25.326;2024-03-02T07:32:26;49.47;;;22.83;;
34805;SDS011;65084;42.196;25.326;2024-03-02T07:34:53;50.05;;;21.00;;
34805;SDS011;65084;42.196;25.326;2024-03-02T07:37:20;77.82;;;31.08;;
34805;SDS011;65084;42.196;25.326;2024-03-02T07:39:48;42.17;;;21.38;;
34805;SDS011;65084;42.196;25.326;2024-03-02T07:42:15;50.85;;;19.58;;
34805;SDS011;65084;42.196;25.326;2024-03-02T07:44:44;38.78;;;17.33;;
34805;SDS011;65084;42.196;25.326;2024-03-02T07:47:12;38.80;;;18.30;;
34805;SDS011;65084;42.196;25.326;2024-03-02T07:49:39;43.13;;;17.88;;
34805;SDS011;65084;42.196;25.326;2024-03-02T07:52:07;40.58;;;19.80;;
34805;SDS011;65084;42.196;25.326;2024-03-02T07:54:34;35.10;;;17.17;;
34805;SDS011;65084;42.196;25.326;2024-03-02T07:57:01;35.88;;;17.65;;
34805;SDS011;65084;42.196;25.326;2024-03-02T07:59:28;32.03;;;15.55;;
34805;SDS011;65084;42.196;25.326;2024-03-02T08:01:57;34.38;;;16.23;;
34805;SDS011;65084;42.196;25.326;2024-03-02T08:04:25;29.60;;;14.80;;
34805;SDS011;65084;42.196;25.326;2024-03-02T08:06:53;38.15;;;17.85;;
34805;SDS011;65084;42.196;25.326;2024-03-02T08:09:20;34.45;;;16.02;;
34805;SDS011;65084;42.196;25.326;2024-03-02T08:11:48;38.80;;;15.15;;
34805;SDS011;65084;42.196;25.326;2024-03-02T08:14:15;33.25;;;14.65;;
34805;SDS011;65084;42.196;25.326;2024-03-02T08:16:42;30.40;;;16.27;;
34805;SDS011;65084;42.196;25.326;2024-03-02T08:19:11;33.78;;;15.57;;
34805;SDS011;65084;42.196;25.326;2024-03-02T08:21:38;35.05;;;16.35;;
34805;SDS011;65084;42.196;25.326;2024-03-02T08:24:06;34.78;;;15.80;;
34805;SDS011;65084;42.196;25.326;2024-03-02T08:26:33;35.70;;;17.02;;
34805;SDS011;65084;42.196;25.326;2024-03-02T08:29:01;42.05;;;17.55;;
34805;SDS011;65084;42.196;25.326;2024-03-02T08:31:28;42.22;;;21.33;;
34805;SDS011;65084;42.196;25.326;2024-03-02T08:33:56;39.53;;;19.02;;
34805;SDS011;65084;42.196;25.326;2024-03-02T08:36:25;41.35;;;19.65;;
34805;SDS011;65084;42.196;25.326;2024-03-02T08:38:52;42.50;;;17.90;;
34805;SDS011;65084;42.196;25.326;2024-03-02T08:41:19;42.97;;;17.65;;
34805;SDS011;65084;42.196;25.326;2024-03-02T08:43:47;45.65;;;20.10;;
34805;SDS011;65084;42.196;25.326;2024-03-02T08:46:14;31.85;;;18.00;;
34805;SDS011;65084;42.196;25.326;2024-03-02T08:48:41;34.50;;;17.95;;
34805;SDS011;65084;42.196;25.326;2024-03-02T08:51:09;55.00;;;21.20;;
34805;SDS011;65084;42.196;25.326;2024-03-02T08:53:37;39.20;;;18.40;;
34805;SDS011;65084;42.196;25.326;2024-03-02T08:56:05;36.88;;;16.85;;
34805;SDS011;65084;42.196;25.326;2024-03-02T08:58:32;42.10;;;19.17;;
34805;SDS011;65084;42.196;25.326;2024-03-02T09:00:59;38.03;;;18.60;;
34805;SDS011;65084;42.196;25.326;2024-03-02T09:03:27;42.80;;;18.65;;
34805;SDS011;65084;42.196;25.326;2024-03-02T09:05:54;33.72;;;17.40;;
34805;SDS011;65084;42.196;25.326;2024-03-02T09:08:21;41.78;;;19.38;;
34805;SDS011;65084;42.196;25.326;2024-03-02T09:10:50;37.80;;;19.70;;
34805;SDS011;65084;42.196;25.326;2024-03-02T09:13:17;31.98;;;18.23;;
34805;SDS011;65084;42.196;25.326;2024-03-02T09:15:45;46.83;;;19.58;;
34805;SDS011;65084;42.196;25.326;2024-03-02T09:18:12;44.00;;;21.13;;
34805;SDS011;65084;42.196;25.326;2024-03-02T09:20:40;38.13;;;19.55;;
34805;SDS011;65084;42.196;25.326;2024-03-02T09:23:07;42.50;;;23.52;;
34805;SDS011;65084;42.196;25.326;2024-03-02T09:25:35;42.05;;;21.77;;
34805;SDS011;65084;42.196;25.326;2024-03-02T09:28:04;43.85;;;20.10;;
34805;SDS011;65084;42.196;25.326;2024-03-02T09:30:32;38.67;;;18.65;;
34805;SDS011;65084;42.196;25.326;2024-03-02T09:32:59;36.40;;;18.70;;
34805;SDS011;65084;42.196;25.326;2024-03-02T09:35:26;39.58;;;18.27;;
34805;SDS011;65084;42.196;25.326;2024-03-02T09:37:54;42.78;;;19.67;;
34805;SDS011;65084;42.196;25.326;2024-03-02T09:40:22;37.13;;;17.52;;
34805;SDS011;65084;42.196;25.326;2024-03-02T09:42:50;44.92;;;19.13;;
34805;SDS011;65084;42.196;25.326;2024-03-02T09:45:20;42.22;;;20.55;;
34805;SDS011;65084;42.196;25.326;2024-03-02T09:47:49;41.45;;;21.20;;
34805;SDS011;65084;42.196;25.326;2024-03-02T09:50:17;50.53;;;20.70;;
34805;SDS011;65084;42.196;25.326;2024-03-02T09:52:44;51.85;;;23.83;;
34805;SDS011;65084;42.196;25.326;2024-03-02T09:55:15;49.58;;;23.13;;
34805;SDS011;65084;42.196;25.326;2024-03-02T09:57:43;47.30;;;21.50;;
34805;SDS011;65084;42.196;25.326;2024-03-02T10:00:11;59.38;;;28.67;;
34805;SDS011;65084;42.196;25.326;2024-03-02T10:02:41;51.47;;;24.63;;
34805;SDS011;65084;42.196;25.326;2024-03-02T10:05:08;44.47;;;20.92;;
34805;SDS011;65084;42.196;25.326;2024-03-02T10:07:36;80.47;;;41.67;;
34805;SDS011;65084;42.196;25.326;2024-03-02T10:10:12;52.78;;;28.90;;
34805;SDS011;65084;42.196;25.326;2024-03-02T10:12:39;58.80;;;27.20;;
34805;SDS011;65084;42.196;25.326;2024-03-02T10:15:07;50.63;;;25.17;;
34805;SDS011;65084;42.196;25.326;2024-03-02T10:17:34;43.22;;;21.48;;
34805;SDS011;65084;42.196;25.326;2024-03-02T10:22:45;46.97;;;22.23;;
34805;SDS011;65084;42.196;25.326;2024-03-02T10:25:17;60.80;;;27.08;;
34805;SDS011;65084;42.196;25.326;2024-03-02T10:27:56;48.42;;;23.58;;
34805;SDS011;65084;42.196;25.326;2024-03-02T10:30:24;56.95;;;25.52;;
34805;SDS011;65084;42.196;25.326;2024-03-02T10:32:52;54.42;;;26.58;;
34805;SDS011;65084;42.196;25.326;2024-03-02T10:35:20;69.40;;;31.40;;
34805;SDS011;65084;42.196;25.326;2024-03-02T10:37:49;59.33;;;28.63;;
34805;SDS011;65084;42.196;25.326;2024-03-02T10:40:17;52.55;;;25.65;;
34805;SDS011;65084;42.196;25.326;2024-03-02T10:42:45;50.80;;;26.92;;
34805;SDS011;65084;42.196;25.326;2024-03-02T10:45:12;44.83;;;24.05;;
34805;SDS011;65084;42.196;25.326;2024-03-02T10:47:42;47.67;;;24.90;;
34805;SDS011;65084;42.196;25.326;2024-03-02T10:50:10;47.83;;;25.05;;
34805;SDS011;65084;42.196;25.326;2024-03-02T10:52:37;49.80;;;28.40;;
34805;SDS011;65084;42.196;25.326;2024-03-02T10:55:07;55.95;;;27.52;;
34805;SDS011;65084;42.196;25.326;2024-03-02T10:57:38;63.40;;;28.58;;
34805;SDS011;65084;42.196;25.326;2024-03-02T11:00:08;53.85;;;27.92;;
34805;SDS011;65084;42.196;25.326;2024-03-02T11:02:40;47.40;;;26.33;;
34805;SDS011;65084;42.196;25.326;2024-03-02T11:05:09;48.70;;;25.27;;
34805;SDS011;65084;42.196;25.326;2024-03-02T11:07:37;43.42;;;25.25;;
34805;SDS011;65084;42.196;25.326;2024-03-02T11:10:07;44.10;;;25.00;;
34805;SDS011;65084;42.196;25.326;2024-03-02T11:12:36;45.72;;;27.13;;
34805;SDS011;65084;42.196;25.326;2024-03-02T11:15:04;48.22;;;29.25;;
34805;SDS011;65084;42.196;25.326;2024-03-02T11:17:32;43.85;;;25.45;;
34805;SDS011;65084;42.196;25.326;2024-03-02T11:19:59;46.53;;;24.20;;
34805;SDS011;65084;42.196;25.326;2024-03-02T11:22:26;44.55;;;24.48;;
34805;SDS011;65084;42.196;25.326;2024-03-02T11:24:55;44.35;;;24.48;;
34805;SDS011;65084;42.196;25.326;2024-03-02T11:30:06;45.00;;;25.55;;
34805;SDS011;65084;42.196;25.326;2024-03-02T11:32:35;41.13;;;23.60;;
34805;SDS011;65084;42.196;25.326;2024-03-02T11:35:03;43.47;;;25.58;;
34805;SDS011;65084;42.196;25.326;2024-03-02T11:37:32;41.75;;;23.38;;
34805;SDS011;65084;42.196;25.326;2024-03-02T11:40:00;43.05;;;22.98;;
34805;SDS011;65084;42.196;25.326;2024-03-02T11:42:27;41.78;;;23.55;;
34805;SDS011;65084;42.196;25.326;2024-03-02T11:44:55;40.17;;;22.00;;
34805;SDS011;65084;42.196;25.326;2024-03-02T11:47:23;48.42;;;24.13;;
34805;SDS011;65084;42.196;25.326;2024-03-02T11:49:51;47.50;;;25.60;;
34805;SDS011;65084;42.196;25.326;2024-03-02T11:52:18;51.67;;;27.80;;
34805;SDS011;65084;42.196;25.326;2024-03-02T11:54:46;48.53;;;25.35;;
34805;SDS011;65084;42.196;25.326;2024-03-02T11:57:14;46.33;;;25.70;;
34805;SDS011;65084;42.196;25.326;2024-03-02T11:59:41;52.58;;;29.35;;
34805;SDS011;65084;42.196;25.326;2024-03-02T12:02:14;49.63;;;26.50;;
34805;SDS011;65084;42.196;25.326;2024-03-02T12:04:43;46.10;;;25.13;;
34805;SDS011;65084;42.196;25.326;2024-03-02T12:07:11;43.15;;;24.67;;
34805;SDS011;65084;42.196;25.326;2024-03-02T12:09:39;47.40;;;25.17;;
34805;SDS011;65084;42.196;25.326;2024-03-02T12:12:07;50.28;;;24.15;;
34805;SDS011;65084;42.196;25.326;2024-03-02T12:14:35;43.05;;;24.73;;
34805;SDS011;65084;42.196;25.326;2024-03-02T12:17:03;58.10;;;29.35;;
34805;SDS011;65084;42.196;25.326;2024-03-02T12:19:32;53.70;;;29.40;;
34805;SDS011;65084;42.196;25.326;2024-03-02T12:22:01;47.38;;;24.23;;
34805;SDS011;65084;42.196;25.326;2024-03-02T12:24:29;39.20;;;23.75;;
34805;SDS011;65084;42.196;25.326;2024-03-02T12:26:56;46.83;;;24.25;;
34805;SDS011;65084;42.196;25.326;2024-03-02T12:29:24;45.42;;;24.15;;
34805;SDS011;65084;42.196;25.326;2024-03-02T12:31:51;41.55;;;23.30;;
34805;SDS011;65084;42.196;25.326;2024-03-02T12:34:19;41.63;;;23.80;;
34805;SDS011;65084;42.196;25.326;2024-03-02T12:36:46;60.50;;;29.20;;
34805;SDS011;65084;42.196;25.326;2024-03-02T12:39:16;54.95;;;24.73;;
34805;SDS011;65084;42.196;25.326;2024-03-02T12:41:44;40.67;;;22.38;;
34805;SDS011;65084;42.196;25.326;2024-03-02T12:44:11;38.10;;;23.15;;
34805;SDS011;65084;42.196;25.326;2024-03-02T12:46:39;45.28;;;24.05;;
34805;SDS011;65084;42.196;25.326;2024-03-02T12:49:07;45.03;;;23.38;;
34805;SDS011;65084;42.196;25.326;2024-03-02T12:51:36;37.72;;;22.63;;
34805;SDS011;65084;42.196;25.326;2024-03-02T12:54:05;49.47;;;23.55;;
34805;SDS011;65084;42.196;25.326;2024-03-02T12:56:34;41.92;;;22.33;;
34805;SDS011;65084;42.196;25.326;2024-03-02T12:59:02;38.53;;;22.40;;
34805;SDS011;65084;42.196;25.326;2024-03-02T13:01:30;49.30;;;23.45;;
34805;SDS011;65084;42.196;25.326;2024-03-02T13:03:57;45.00;;;23.02;;
34805;SDS011;65084;42.196;25.326;2024-03-02T13:06:25;42.88;;;24.33;;
34805;SDS011;65084;42.196;25.326;2024-03-02T13:08:54;47.50;;;25.55;;
34805;SDS011;65084;42.196;25.326;2024-03-02T13:11:22;50.00;;;27.70;;
34805;SDS011;65084;42.196;25.326;2024-03-02T13:16:40;46.50;;;25.33;;
34805;SDS011;65084;42.196;25.326;2024-03-02T13:19:07;50.08;;;26.33;;
34805;SDS011;65084;42.196;25.326;2024-03-02T13:21:34;64.35;;;33.42;;
34805;SDS011;65084;42.196;25.326;2024-03-02T13:24:02;55.83;;;28.45;;
34805;SDS011;65084;42.196;25.326;2024-03-02T13:26:29;52.55;;;26.67;;
34805;SDS011;65084;42.196;25.326;2024-03-02T13:28:56;47.38;;;25.77;;
34805;SDS011;65084;42.196;25.326;2024-03-02T13:31:26;40.83;;;22.58;;
34805;SDS011;65084;42.196;25.326;2024-03-02T13:33:55;53.60;;;25.52;;
34805;SDS011;65084;42.196;25.326;2024-03-02T13:36:23;44.97;;;25.27;;
34805;SDS011;65084;42.196;25.326;2024-03-02T13:38:51;44.55;;;24.83;;
34805;SDS011;65084;42.196;25.326;2024-03-02T13:41:18;48.53;;;26.00;;
34805;SDS011;65084;42.196;25.326;2024-03-02T13:43:46;50.92;;;28.67;;
34805;SDS011;65084;42.196;25.326;2024-03-02T13:46:13;55.22;;;28.23;;
34805;SDS011;65084;42.196;25.326;2024-03-02T13:48:40;53.97;;;29.35;;
34805;SDS011;65084;42.196;25.326;2024-03-02T13:51:09;57.38;;;28.50;;
34805;SDS011;65084;42.196;25.326;2024-03-02T13:53:36;41.13;;;25.70;;
34805;SDS011;65084;42.196;25.326;2024-03-02T13:56:04;48.60;;;25.30;;
34805;SDS011;65084;42.196;25.326;2024-03-02T13:58:31;42.35;;;24.35;;
34805;SDS011;65084;42.196;25.326;2024-03-02T14:00:59;38.50;;;23.45;;
34805;SDS011;65084;42.196;25.326;2024-03-02T14:03:27;43.97;;;25.45;;
34805;SDS011;65084;42.196;25.326;2024-03-02T14:05:54;41.45;;;23.02;;
34805;SDS011;65084;42.196;25.326;2024-03-02T14:08:23;39.72;;;24.25;;
34805;SDS011;65084;42.196;25.326;2024-03-02T14:10:50;38.38;;;23.63;;
34805;SDS011;65084;42.196;25.326;2024-03-02T14:13:17;44.05;;;23.55;;
34805;SDS011;65084;42.196;25.326;2024-03-02T14:15:45;39.15;;;23.65;;
34805;SDS011;65084;42.196;25.326;2024-03-02T14:18:12;42.83;;;25.08;;
34805;SDS011;65084;42.196;25.326;2024-03-02T14:20:39;43.63;;;25.85;;
34805;SDS011;65084;42.196;25.326;2024-03-02T14:23:07;45.60;;;24.55;;